createdAt,value
2022-09-07T00:01:10.916Z,100559.94
2022-09-07T00:02:13.073Z,100566.14
2022-09-07T00:03:15.750Z,100560.13
2022-09-07T00:04:18.834Z,100560.00
2022-09-07T00:05:21.339Z,100565.30
2022-09-07T00:06:25.137Z,100556.76
2022-09-07T00:07:28.765Z,100563.16
2022-09-07T00:08:32.040Z,100563.22
2022-09-07T00:09:40.843Z,100556.27
2022-09-07T00:10:52.716Z,100562.28
2022-09-07T00:11:55.446Z,100560.58
2022-09-07T00:12:59.522Z,100561.68
2022-09-07T00:14:02.249Z,100565.98
2022-09-07T00:15:06.001Z,100561.79
2022-09-07T00:16:11.778Z,100568.03
2022-09-07T00:17:14.101Z,100564.55
2022-09-07T00:18:17.277Z,100564.48
2022-09-07T00:20:40.398Z,100560.08
2022-09-07T00:21:42.638Z,100559.20
2022-09-07T00:22:44.878Z,100564.27
2022-09-07T00:23:48.750Z,100570.30
2022-09-07T00:24:51.100Z,100562.52
2022-09-07T00:25:54.167Z,100570.35
2022-09-07T00:26:57.070Z,100564.34
2022-09-07T00:28:00.022Z,100561.74
2022-09-07T00:29:03.357Z,100561.73
2022-09-07T00:30:07.068Z,100565.87
2022-09-07T00:31:12.154Z,100564.93
2022-09-07T00:32:14.353Z,100564.88
2022-09-07T00:33:17.072Z,100565.94
2022-09-07T00:34:20.242Z,100560.74
2022-09-07T00:35:22.467Z,100558.24
2022-09-07T00:36:25.144Z,100559.03
2022-09-07T00:37:27.255Z,100548.65
2022-09-07T00:38:30.138Z,100553.73
2022-09-07T00:39:33.447Z,100552.00
2022-09-07T00:40:35.720Z,100552.00
2022-09-07T00:41:38.071Z,100551.83
2022-09-07T00:42:40.338Z,100549.19
2022-09-07T00:43:45.935Z,100550.84
2022-09-07T00:45:00.482Z,100556.93
2022-09-07T00:46:05.115Z,100554.61
2022-09-07T00:47:27.003Z,100558.97
2022-09-07T00:48:42.972Z,100558.97
2022-09-07T00:49:49.106Z,100546.94
2022-09-07T00:52:07.924Z,100547.41
2022-09-07T00:53:17.624Z,100557.98
2022-09-07T00:54:26.273Z,100553.73
2022-09-07T00:55:30.607Z,100553.07
2022-09-07T00:56:36.349Z,100547.11
2022-09-07T00:57:42.169Z,100547.11
2022-09-07T00:58:44.472Z,100546.27
2022-09-07T00:59:50.095Z,100549.70
2022-09-07T01:00:52.394Z,100545.50
2022-09-07T01:01:55.018Z,100550.95
2022-09-07T01:02:59.190Z,100542.35
2022-09-07T01:04:03.050Z,100543.22
2022-09-07T01:05:09.686Z,100547.59
2022-09-07T01:06:28.967Z,100541.56
2022-09-07T01:07:31.150Z,100546.77
2022-09-07T01:08:34.265Z,100539.08
2022-09-07T01:09:36.873Z,100540.84
2022-09-07T01:10:40.125Z,100533.16
2022-09-07T01:11:42.812Z,100533.16
2022-09-07T01:12:45.075Z,100543.33
2022-09-07T01:13:49.425Z,100540.69
2022-09-07T01:14:54.411Z,100534.70
2022-09-07T01:16:15.022Z,100533.80
2022-09-07T01:17:27.597Z,100539.90
2022-09-07T01:18:40.406Z,100539.80
2022-09-07T01:20:11.100Z,100535.44
2022-09-07T01:21:22.772Z,100543.22
2022-09-07T01:22:34.766Z,100537.14
2022-09-07T01:23:55.560Z,100533.73
2022-09-07T01:25:22.115Z,100540.62
2022-09-07T01:27:01.660Z,100534.56
2022-09-07T01:28:19.118Z,100533.80
2022-09-07T01:29:30.609Z,100538.98
2022-09-07T01:30:36.419Z,100532.17
2022-09-07T01:31:48.476Z,100530.56
2022-09-07T01:33:14.461Z,100531.52
2022-09-07T01:34:25.374Z,100534.26
2022-09-07T01:35:31.060Z,100536.03
2022-09-07T01:36:45.988Z,100532.55
2022-09-07T01:38:28.672Z,100532.70
2022-09-07T01:39:50.401Z,100535.41
2022-09-07T01:41:01.708Z,100532.00
2022-09-07T01:42:07.739Z,100525.95
2022-09-07T01:43:16.474Z,100525.91
2022-09-07T01:44:22.129Z,100520.77
2022-09-07T01:45:27.855Z,100524.22
2022-09-07T01:48:00.683Z,100521.50
2022-09-07T01:49:18.711Z,100515.75
2022-09-07T01:51:40.786Z,100516.45
2022-09-07T01:53:01.600Z,100518.49
2022-09-07T01:54:10.454Z,100517.63
2022-09-07T01:55:19.209Z,100516.78
2022-09-07T01:56:28.260Z,100510.78
2022-09-07T01:57:33.836Z,100512.53
2022-09-07T01:58:39.511Z,100511.64
2022-09-07T02:00:00.626Z,100510.72
2022-09-07T02:01:09.445Z,100509.84
2022-09-07T02:02:15.285Z,100511.66
2022-09-07T02:03:21.162Z,100509.95
2022-09-07T02:04:27.916Z,100504.66
2022-09-07T02:05:33.592Z,100507.25
2022-09-07T02:06:45.122Z,100505.48
2022-09-07T02:07:53.645Z,100503.62
2022-09-07T02:09:02.968Z,100508.75
2022-09-07T02:10:08.836Z,100507.88
2022-09-07T02:11:14.851Z,100503.45
2022-09-07T02:12:26.621Z,100502.74
2022-09-07T02:13:58.144Z,100503.62
2022-09-07T02:15:03.794Z,100512.23
2022-09-07T02:16:16.301Z,100501.14
2022-09-07T02:17:28.826Z,100512.53
2022-09-07T02:18:34.512Z,100505.55
2022-09-07T02:19:43.011Z,100505.42
2022-09-07T02:20:49.876Z,100501.73
2022-09-07T02:21:55.708Z,100505.68
2022-09-07T02:23:02.722Z,100503.86
2022-09-07T02:24:20.784Z,100499.72
2022-09-07T02:25:38.748Z,100502.41
2022-09-07T02:26:44.237Z,100498.88
2022-09-07T02:27:49.907Z,100501.52
2022-09-07T02:28:52.039Z,100500.15
2022-09-07T02:29:54.174Z,100501.14
2022-09-07T02:30:56.505Z,100502.05
2022-09-07T02:31:58.707Z,100507.20
2022-09-07T02:33:00.883Z,100504.50
2022-09-07T02:34:03.261Z,100501.02
2022-09-07T02:35:06.519Z,100502.83
2022-09-07T02:36:13.172Z,100498.28
2022-09-07T02:37:18.505Z,100502.89
2022-09-07T02:38:21.630Z,100497.91
2022-09-07T02:39:23.739Z,100496.40
2022-09-07T02:40:26.691Z,100491.31
2022-09-07T02:41:32.390Z,100503.98
2022-09-07T02:42:36.561Z,100503.78
2022-09-07T02:43:38.785Z,100492.31
2022-09-07T02:44:43.197Z,100500.03
2022-09-07T02:45:48.963Z,100494.84
2022-09-07T02:47:11.671Z,100494.97
2022-09-07T02:48:40.461Z,100493.41
2022-09-07T02:50:08.832Z,100499.56
2022-09-07T02:51:26.717Z,100500.75
2022-09-07T02:52:35.218Z,100500.76
2022-09-07T02:53:57.710Z,100503.34
2022-09-07T02:55:34.929Z,100501.05
2022-09-07T02:56:49.233Z,100502.94
2022-09-07T02:58:03.910Z,100507.44
2022-09-07T02:59:22.010Z,100505.86
2022-09-07T03:00:24.531Z,100510.08
2022-09-07T03:01:48.640Z,100503.97
2022-09-07T03:03:10.101Z,100498.68
2022-09-07T03:04:21.776Z,100498.59
2022-09-07T03:05:48.836Z,100503.72
2022-09-07T03:07:00.671Z,100500.16
2022-09-07T03:08:13.162Z,100498.16
2022-09-07T03:09:22.322Z,100498.95
2022-09-07T03:10:26.024Z,100504.13
2022-09-07T03:11:29.353Z,100497.38
2022-09-07T03:12:43.445Z,100496.73
2022-09-07T03:13:45.627Z,100499.42
2022-09-07T03:14:48.772Z,100501.14
2022-09-07T03:15:55.517Z,100493.36
2022-09-07T03:16:57.476Z,100491.55
2022-09-07T03:18:00.125Z,100497.53
2022-09-07T03:19:02.388Z,100498.40
2022-09-07T03:20:05.308Z,100496.60
2022-09-07T03:21:07.364Z,100494.14
2022-09-07T03:22:09.463Z,100491.56
2022-09-07T03:23:12.921Z,100495.82
2022-09-07T03:24:15.117Z,100500.06
2022-09-07T03:25:18.410Z,100492.28
2022-09-07T03:26:25.567Z,100492.34
2022-09-07T03:27:28.339Z,100492.34
2022-09-07T03:28:31.779Z,100487.25
2022-09-07T03:29:35.912Z,100496.69
2022-09-07T03:30:43.500Z,100494.98
2022-09-07T03:31:45.855Z,100492.34
2022-09-07T03:32:47.939Z,100496.50
2022-09-07T03:33:49.982Z,100492.09
2022-09-07T03:34:52.795Z,100492.87
2022-09-07T03:36:00.107Z,100497.23
2022-09-07T03:37:03.433Z,100491.22
2022-09-07T03:38:06.117Z,100495.62
2022-09-07T03:39:11.018Z,100486.08
2022-09-07T03:40:15.161Z,100492.92
2022-09-07T03:41:17.994Z,100499.08
2022-09-07T03:42:20.177Z,100494.92
2022-09-07T03:43:24.157Z,100494.14
2022-09-07T03:44:26.501Z,100486.28
2022-09-07T03:45:28.623Z,100489.02
2022-09-07T03:46:32.203Z,100489.89
2022-09-07T03:47:35.563Z,100494.20
2022-09-07T03:48:38.524Z,100494.39
2022-09-07T03:49:41.184Z,100492.62
2022-09-07T03:50:43.702Z,100497.76
2022-09-07T03:51:46.962Z,100490.86
2022-09-07T03:52:49.136Z,100493.70
2022-09-07T03:53:51.040Z,100497.25
2022-09-07T03:54:53.644Z,100499.72
2022-09-07T03:55:57.522Z,100492.96
2022-09-07T03:56:59.949Z,100496.52
2022-09-07T03:58:02.433Z,100499.98
2022-09-07T03:59:04.598Z,100500.08
2022-09-07T04:00:08.428Z,100502.67
2022-09-07T04:01:19.966Z,100498.45
2022-09-07T04:02:22.601Z,100508.84
2022-09-07T04:03:26.058Z,100507.14
2022-09-07T04:04:28.355Z,100504.45
2022-09-07T04:05:31.903Z,100507.89
2022-09-07T04:06:34.389Z,100485.41
2022-09-07T04:07:36.457Z,100485.41
2022-09-07T04:08:39.361Z,100500.73
2022-09-07T04:09:41.449Z,100508.50
2022-09-07T04:10:43.589Z,100501.56
2022-09-07T04:11:46.557Z,100508.50
2022-09-07T04:12:48.673Z,100504.98
2022-09-07T04:13:50.775Z,100502.25
2022-09-07T04:14:52.916Z,100504.70
2022-09-07T04:15:55.705Z,100500.41
2022-09-07T04:16:58.485Z,100515.06
2022-09-07T04:18:01.476Z,100502.99
2022-09-07T04:19:06.471Z,100515.20
2022-09-07T04:20:09.820Z,100508.45
2022-09-07T04:21:12.906Z,100510.21
2022-09-07T04:22:15.416Z,100510.30
2022-09-07T04:23:18.900Z,100510.43
2022-09-07T04:24:21.043Z,100513.03
2022-09-07T04:25:23.138Z,100509.77
2022-09-07T04:26:28.829Z,100516.67
2022-09-07T04:27:30.932Z,100514.95
2022-09-07T04:28:33.105Z,100514.30
2022-09-07T04:29:35.179Z,100509.20
2022-09-07T04:30:37.907Z,100502.35
2022-09-07T04:31:40.048Z,100502.35
2022-09-07T04:32:42.217Z,100512.50
2022-09-07T04:33:45.858Z,100513.38
2022-09-07T04:34:48.068Z,100515.84
2022-09-07T04:35:50.237Z,100513.20
2022-09-07T04:36:53.080Z,100507.05
2022-09-07T04:37:55.307Z,100519.13
2022-09-07T04:39:00.446Z,100514.87
2022-09-07T04:40:03.200Z,100507.14
2022-09-07T04:41:12.206Z,100511.36
2022-09-07T04:42:14.418Z,100515.52
2022-09-07T04:43:16.592Z,100513.59
2022-09-07T04:44:19.251Z,100510.08
2022-09-07T04:45:21.793Z,100512.80
2022-09-07T04:46:27.764Z,100508.31
2022-09-07T04:47:30.459Z,100512.52
2022-09-07T04:48:32.943Z,100506.41
2022-09-07T04:49:35.095Z,100515.80
2022-09-07T04:50:37.370Z,100509.56
2022-09-07T04:51:40.234Z,100511.27
2022-09-07T04:52:43.385Z,100507.64
2022-09-07T04:53:48.578Z,100506.72
2022-09-07T04:54:51.160Z,100510.97
2022-09-07T04:55:54.357Z,100515.42
2022-09-07T04:56:56.788Z,100519.68
2022-09-07T04:57:59.799Z,100507.02
2022-09-07T04:59:02.319Z,100517.34
2022-09-07T05:00:06.289Z,100515.02
2022-09-07T05:01:08.541Z,100517.48
2022-09-07T05:02:10.823Z,100519.97
2022-09-07T05:03:13.325Z,100518.98
2022-09-07T05:04:15.387Z,100514.50
2022-09-07T05:05:17.995Z,100516.15
2022-09-07T05:06:21.922Z,100517.77
2022-09-07T05:07:24.078Z,100509.95
2022-09-07T05:08:25.974Z,100510.82
2022-09-07T05:09:28.224Z,100513.31
2022-09-07T05:10:31.043Z,100506.33
2022-09-07T05:11:33.314Z,100509.89
2022-09-07T05:12:35.391Z,100510.78
2022-09-07T05:13:38.394Z,100509.94
2022-09-07T05:14:40.937Z,100509.95
2022-09-07T05:15:43.037Z,100511.66
2022-09-07T05:16:46.248Z,100511.59
2022-09-07T05:17:48.548Z,100511.50
2022-09-07T05:18:53.601Z,100508.02
2022-09-07T05:19:56.886Z,100503.73
2022-09-07T05:21:08.359Z,100508.96
2022-09-07T05:22:11.365Z,100512.38
2022-09-07T05:23:13.410Z,100510.61
2022-09-07T05:24:15.487Z,100510.52
2022-09-07T05:25:17.549Z,100509.69
2022-09-07T05:26:22.773Z,100506.22
2022-09-07T05:27:24.941Z,100504.45
2022-09-07T05:28:27.069Z,100501.77
2022-09-07T05:31:38.061Z,100510.36
2022-09-07T05:32:43.690Z,100513.82
2022-09-07T05:34:56.226Z,100504.17
2022-09-07T05:35:59.829Z,100510.19
2022-09-07T05:37:01.938Z,100511.75
2022-09-07T05:38:05.123Z,100506.45
2022-09-07T05:39:08.036Z,100506.23
2022-09-07T05:40:11.329Z,100510.44
2022-09-07T05:41:17.519Z,100501.05
2022-09-07T05:42:19.746Z,100507.84
2022-09-07T05:43:22.028Z,100512.03
2022-09-07T05:45:29.030Z,100514.40
2022-09-07T05:46:31.762Z,100503.97
2022-09-07T05:47:33.801Z,100513.41
2022-09-07T05:48:36.662Z,100510.70
2022-09-07T05:49:39.374Z,100503.64
2022-09-07T05:50:51.451Z,100509.53
2022-09-07T05:51:54.133Z,100502.51
2022-09-07T05:52:58.548Z,100498.20
2022-09-07T05:54:00.832Z,100498.20
2022-09-07T05:55:28.224Z,100501.34
2022-09-07T05:56:08.656Z,100502.11
2022-09-07T05:57:11.230Z,100502.88
2022-09-07T05:58:14.546Z,100502.70
2022-09-07T05:59:16.696Z,100502.52
2022-09-07T06:00:20.379Z,100504.05
2022-09-07T06:01:23.767Z,100503.86
2022-09-07T06:02:27.211Z,100505.50
2022-09-07T06:03:29.450Z,100505.31
2022-09-07T06:04:32.045Z,100497.59
2022-09-07T06:05:34.225Z,100501.77
2022-09-07T06:06:37.204Z,100498.98
2022-09-07T06:07:39.666Z,100501.44
2022-09-07T06:08:46.997Z,100503.93
2022-09-07T06:10:55.218Z,100511.66
2022-09-07T06:11:57.815Z,100506.45
2022-09-07T06:12:59.859Z,100508.05
2022-09-07T06:14:02.993Z,100499.92
2022-09-07T06:15:06.280Z,100510.18
2022-09-07T06:16:11.560Z,100510.23
2022-09-07T06:17:13.781Z,100497.77
2022-09-07T06:18:15.995Z,100510.84
2022-09-07T06:19:18.163Z,100506.53
2022-09-07T06:20:20.838Z,100503.70
2022-09-07T06:21:24.400Z,100515.00
2022-09-07T06:22:30.968Z,100506.23
2022-09-07T06:23:33.380Z,100513.15
2022-09-07T06:24:35.515Z,100509.47
2022-09-07T06:25:38.034Z,100506.13
2022-09-07T06:26:41.407Z,100504.13
2022-09-07T06:27:45.400Z,100509.06
2022-09-07T06:28:51.381Z,100510.18
2022-09-07T06:29:53.676Z,100507.85
2022-09-07T06:31:04.204Z,100510.30
2022-09-07T06:33:11.790Z,100510.77
2022-09-07T06:34:14.092Z,100510.55
2022-09-07T06:35:16.396Z,100508.75
2022-09-07T06:36:22.707Z,100512.00
2022-09-07T06:37:24.999Z,100516.34
2022-09-07T06:38:33.053Z,100521.46
2022-09-07T06:39:35.725Z,100524.84
2022-09-07T06:40:38.656Z,100516.34
2022-09-07T06:42:44.844Z,100517.52
2022-09-07T06:43:49.628Z,100516.32
2022-09-07T06:44:51.873Z,100514.56
2022-09-07T06:45:54.650Z,100515.16
2022-09-07T06:47:04.877Z,100523.05
2022-09-07T06:48:01.294Z,100523.14
2022-09-07T06:49:04.577Z,100528.40
2022-09-07T06:50:09.021Z,100530.30
2022-09-07T06:51:17.384Z,100524.28
2022-09-07T06:52:19.611Z,100528.15
2022-09-07T06:53:39.301Z,100527.00
2022-09-07T06:55:30.846Z,100528.95
2022-09-07T06:56:33.270Z,100531.63
2022-09-07T06:57:35.435Z,100532.97
2022-09-07T06:58:42.168Z,100529.87
2022-09-07T06:59:42.859Z,100532.73
2022-09-07T07:00:45.358Z,100532.91
2022-09-07T07:01:47.527Z,100534.84
2022-09-07T07:02:49.764Z,100537.98
2022-09-07T07:03:53.177Z,100533.36
2022-09-07T07:04:55.486Z,100532.46
2022-09-07T07:05:57.823Z,100524.78
2022-09-07T07:07:00.174Z,100526.41
2022-09-07T07:08:04.068Z,100523.80
2022-09-07T07:09:09.200Z,100525.64
2022-09-07T07:10:12.033Z,100520.39
2022-09-07T07:11:15.493Z,100517.67
2022-09-07T07:14:21.182Z,100520.33
2022-09-07T07:15:26.007Z,100522.34
2022-09-07T07:16:30.154Z,100519.73
2022-09-07T07:17:32.579Z,100532.84
2022-09-07T07:18:35.566Z,100526.05
2022-09-07T07:19:38.327Z,100534.61
2022-09-07T07:20:41.621Z,100526.66
2022-09-07T07:22:07.825Z,100530.66
2022-09-07T07:22:52.262Z,100532.77
2022-09-07T07:23:54.573Z,100534.54
2022-09-07T07:24:57.220Z,100529.43
2022-09-07T07:26:04.724Z,100530.63
2022-09-07T07:27:06.813Z,100539.62
2022-09-07T07:29:17.051Z,100528.92
2022-09-07T07:30:19.525Z,100526.28
2022-09-07T07:31:24.503Z,100533.78
2022-09-07T07:32:26.759Z,100539.91
2022-09-07T07:33:31.595Z,100530.38
2022-09-07T07:34:33.839Z,100521.72
2022-09-07T07:35:36.014Z,100526.86
2022-09-07T07:36:39.045Z,100526.14
2022-09-07T07:37:41.705Z,100514.86
2022-09-07T07:39:05.614Z,100522.51
2022-09-07T07:40:27.668Z,100535.48
2022-09-07T07:42:05.950Z,100521.78
2022-09-07T07:43:07.790Z,100516.86
2022-09-07T07:44:10.040Z,100518.53
2022-09-07T07:46:20.202Z,100519.45
2022-09-07T07:47:22.389Z,100511.09
2022-09-07T07:48:26.602Z,100524.79
2022-09-07T07:49:28.788Z,100506.52
2022-09-07T07:50:32.006Z,100505.09
2022-09-07T07:52:49.976Z,100509.52
2022-09-07T07:53:43.330Z,100501.78
2022-09-07T07:54:45.524Z,100511.78
2022-09-07T07:55:47.550Z,100510.53
2022-09-07T07:56:49.882Z,100499.84
2022-09-07T07:57:53.133Z,100498.56
2022-09-07T07:58:55.284Z,100501.39
2022-09-07T07:59:58.402Z,100499.20
2022-09-07T08:01:10.461Z,100499.72
2022-09-07T08:02:17.276Z,100492.64
2022-09-07T08:03:22.748Z,100502.81
2022-09-07T08:04:24.952Z,100502.54
2022-09-07T08:05:27.506Z,100505.92
2022-09-07T08:06:31.974Z,100505.14
2022-09-07T08:07:34.343Z,100496.25
2022-09-07T08:08:37.375Z,100508.41
2022-09-07T08:09:45.225Z,100501.89
2022-09-07T08:10:49.649Z,100505.57
2022-09-07T08:11:52.684Z,100499.36
2022-09-07T08:12:55.478Z,100498.23
2022-09-07T08:13:58.695Z,100501.07
2022-09-07T08:15:02.136Z,100497.02
2022-09-07T08:16:05.032Z,100490.03
2022-09-07T08:17:12.977Z,100494.25
2022-09-07T08:18:16.859Z,100499.32
2022-09-07T08:19:18.942Z,100494.61
2022-09-07T08:20:22.003Z,100501.91
2022-09-07T08:21:23.974Z,100498.92
2022-09-07T08:22:29.794Z,100491.45
2022-09-07T08:23:31.964Z,100499.78
2022-09-07T08:24:34.162Z,100485.45
2022-09-07T08:25:36.041Z,100493.41
2022-09-07T08:26:38.078Z,100485.38
2022-09-07T08:27:39.794Z,100490.39
2022-09-07T08:28:42.260Z,100484.38
2022-09-07T08:29:45.207Z,100481.89
2022-09-07T08:30:47.403Z,100487.78
2022-09-07T08:31:49.964Z,100473.33
2022-09-07T08:32:53.248Z,100486.12
2022-09-07T08:33:55.293Z,100485.03
2022-09-07T08:34:57.121Z,100479.20
2022-09-07T08:36:02.037Z,100490.86
2022-09-07T08:37:04.725Z,100480.28
2022-09-07T08:38:06.595Z,100478.29
2022-09-07T08:39:08.451Z,100477.28
2022-09-07T08:40:18.355Z,100472.62
2022-09-07T08:41:48.453Z,100472.62
2022-09-07T08:43:20.176Z,100484.54
2022-09-07T08:44:26.457Z,100484.11
2022-09-07T08:45:35.278Z,100474.55
2022-09-07T08:46:59.743Z,100451.52
2022-09-07T08:48:04.364Z,100446.63
2022-09-07T08:49:09.989Z,100448.73
2022-09-07T08:50:37.366Z,100456.73
2022-09-07T08:51:46.092Z,100454.83
2022-09-07T08:53:12.408Z,100456.52
2022-09-07T08:54:15.860Z,100458.66
2022-09-07T08:55:33.321Z,100451.92
2022-09-07T08:56:39.300Z,100448.26
2022-09-07T08:57:45.034Z,100465.48
2022-09-07T08:58:50.706Z,100457.89
2022-09-07T09:00:08.940Z,100453.55
2022-09-07T09:02:40.293Z,100452.21
2022-09-07T09:03:30.106Z,100453.61
2022-09-07T09:05:15.745Z,100452.31
2022-09-07T09:05:55.216Z,100457.46
2022-09-07T09:07:11.097Z,100454.33
2022-09-07T09:08:16.880Z,100449.39
2022-09-07T09:09:31.226Z,100443.05
2022-09-07T09:11:09.715Z,100456.56
2022-09-07T09:12:27.575Z,100445.50
2022-09-07T09:14:07.069Z,100442.86
2022-09-07T09:15:24.845Z,100434.09
2022-09-07T09:16:46.332Z,100438.23
2022-09-07T09:18:15.872Z,100425.45
2022-09-07T09:19:42.894Z,100417.77
2022-09-07T09:20:56.849Z,100421.41
2022-09-07T09:23:18.328Z,100423.26
2022-09-07T09:24:25.058Z,100439.22
2022-09-07T09:25:32.761Z,100424.97
2022-09-07T09:26:35.314Z,100423.95
2022-09-07T09:27:37.512Z,100422.47
2022-09-07T09:28:39.781Z,100417.39
2022-09-07T09:29:42.127Z,100415.11
2022-09-07T09:30:44.337Z,100418.75
2022-09-07T09:31:46.713Z,100421.13
2022-09-07T09:32:51.660Z,100421.70
2022-09-07T09:34:09.331Z,100419.55
2022-09-07T09:35:17.786Z,100415.67
2022-09-07T09:36:28.244Z,100411.66
2022-09-07T09:37:38.522Z,100416.04
2022-09-07T09:38:41.157Z,100421.38
2022-09-07T09:39:43.750Z,100407.18
2022-09-07T09:40:50.605Z,100416.91
2022-09-07T09:41:54.782Z,100404.04
2022-09-07T09:43:08.805Z,100410.64
2022-09-07T09:44:14.506Z,100411.07
2022-09-07T09:46:33.467Z,100395.75
2022-09-07T09:47:36.888Z,100407.33
2022-09-07T09:48:40.926Z,100402.63
2022-09-07T09:49:44.813Z,100398.80
2022-09-07T09:53:04.865Z,100408.02
2022-09-07T09:54:16.443Z,100401.52
2022-09-07T09:55:34.324Z,100406.07
2022-09-07T09:56:43.718Z,100407.77
2022-09-07T09:59:56.768Z,100397.53
2022-09-07T10:00:10.302Z,100402.25
2022-09-07T10:04:42.316Z,100390.17
2022-09-07T10:05:47.986Z,100389.64
2022-09-07T10:06:53.717Z,100393.73
2022-09-07T10:07:56.940Z,100382.80
2022-09-07T10:09:02.781Z,100391.86
2022-09-07T10:10:05.686Z,100384.09
2022-09-07T10:11:10.280Z,100394.81
2022-09-07T10:12:32.196Z,100392.38
2022-09-07T10:13:37.490Z,100389.48
2022-09-07T10:14:45.609Z,100378.27
2022-09-07T10:15:53.092Z,100390.82
2022-09-07T10:16:56.860Z,100391.69
2022-09-07T10:18:00.081Z,100394.76
2022-09-07T10:19:02.723Z,100393.20
2022-09-07T10:20:17.430Z,100392.86
2022-09-07T10:21:30.189Z,100392.97
2022-09-07T10:22:35.434Z,100391.02
2022-09-07T10:23:38.487Z,100382.89
2022-09-07T10:24:41.982Z,100376.80
2022-09-07T10:25:44.803Z,100391.95
2022-09-07T10:26:47.613Z,100375.80
2022-09-07T10:28:13.794Z,100379.52
2022-09-07T10:29:29.838Z,100388.50
2022-09-07T10:30:54.564Z,100390.25
2022-09-07T10:32:34.445Z,100388.98
2022-09-07T10:35:15.758Z,100378.94
2022-09-07T10:36:46.171Z,100382.63
2022-09-07T10:37:54.552Z,100380.02
2022-09-07T10:39:03.367Z,100382.83
2022-09-07T10:40:40.999Z,100389.14
2022-09-07T10:42:04.109Z,100376.96
2022-09-07T10:43:30.664Z,100373.94
2022-09-07T10:44:45.481Z,100365.04
2022-09-07T10:46:09.117Z,100369.42
2022-09-07T10:47:16.844Z,100362.23
2022-09-07T10:48:48.154Z,100364.02
2022-09-07T10:51:12.685Z,100355.78
2022-09-07T10:52:15.836Z,100358.00
2022-09-07T10:55:04.019Z,100348.36
2022-09-07T10:56:19.049Z,100349.02
2022-09-07T10:57:28.594Z,100350.22
2022-09-07T11:00:17.861Z,100348.54
2022-09-07T11:01:32.523Z,100344.62
2022-09-07T11:03:28.166Z,100350.84
2022-09-07T11:04:29.471Z,100340.50
2022-09-07T11:05:40.828Z,100336.42
2022-09-07T11:08:00.638Z,100339.73
2022-09-07T11:09:23.881Z,100341.35
2022-09-07T11:10:49.395Z,100341.14
2022-09-07T11:12:10.888Z,100337.58
2022-09-07T11:13:19.531Z,100344.70
2022-09-07T11:14:24.907Z,100329.98
2022-09-07T11:15:36.263Z,100333.75
2022-09-07T11:16:57.304Z,100329.20
2022-09-07T11:17:52.759Z,100324.84
2022-09-07T11:19:35.088Z,100333.77
2022-09-07T11:20:10.141Z,100324.06
2022-09-07T11:21:56.111Z,100326.89
2022-09-07T11:22:28.982Z,100323.61
2022-09-07T11:23:37.860Z,100332.33
2022-09-07T11:25:29.186Z,100336.47
2022-09-07T11:25:59.033Z,100325.67
2022-09-07T11:27:04.732Z,100320.78
2022-09-07T11:28:42.167Z,100319.41
2022-09-07T11:31:02.295Z,100313.94
2022-09-07T11:32:11.130Z,100311.14
2022-09-07T11:33:22.671Z,100307.66
2022-09-07T11:34:37.492Z,100311.13
2022-09-07T11:35:46.961Z,100310.77
2022-09-07T11:37:10.722Z,100301.02
2022-09-07T11:39:31.686Z,100300.70
2022-09-07T11:40:37.650Z,100303.44
2022-09-07T11:41:44.262Z,100309.23
2022-09-07T11:42:50.053Z,100292.23
2022-09-07T11:44:02.251Z,100291.98
2022-09-07T11:45:11.585Z,100295.16
2022-09-07T11:46:17.973Z,100309.23
2022-09-07T11:47:39.089Z,100298.25
2022-09-07T11:48:54.401Z,100303.22
2022-09-07T11:49:59.393Z,100293.03
2022-09-07T11:51:08.079Z,100293.39
2022-09-07T11:52:25.910Z,100291.80
2022-09-07T11:53:32.570Z,100294.66
2022-09-07T11:54:53.301Z,100293.86
2022-09-07T11:57:17.838Z,100280.47
2022-09-07T11:58:38.897Z,100285.19
2022-09-07T12:01:28.502Z,100282.28
2022-09-07T12:02:57.843Z,100276.43
2022-09-07T12:04:01.705Z,100295.91
2022-09-07T12:05:16.579Z,100302.86
2022-09-07T12:06:26.640Z,100279.53
2022-09-07T12:07:50.273Z,100266.81
2022-09-07T12:09:02.282Z,100274.58
2022-09-07T12:10:16.900Z,100273.42
2022-09-07T12:11:45.749Z,100279.91
2022-09-07T12:12:58.605Z,100277.00
2022-09-07T12:14:13.269Z,100256.00
2022-09-07T12:16:52.527Z,100264.41
2022-09-07T12:18:10.529Z,100263.95
2022-09-07T12:19:24.828Z,100269.61
2022-09-07T12:20:42.491Z,100275.84
2022-09-07T12:21:53.974Z,100259.00
2022-09-07T12:23:05.917Z,100263.78
2022-09-07T12:24:28.480Z,100259.35
2022-09-07T12:25:33.633Z,100254.98
2022-09-07T12:26:39.337Z,100250.08
2022-09-07T12:27:41.302Z,100250.58
2022-09-07T12:28:47.353Z,100254.58
2022-09-07T12:29:52.228Z,100249.80
2022-09-07T12:30:57.599Z,100248.86
2022-09-07T12:33:26.991Z,100248.80
2022-09-07T12:34:35.756Z,100237.64
2022-09-07T12:35:41.803Z,100242.83
2022-09-07T12:36:50.234Z,100238.30
2022-09-07T12:37:57.855Z,100232.04
2022-09-07T12:39:06.298Z,100235.17
2022-09-07T12:40:30.896Z,100233.35
2022-09-07T12:41:47.295Z,100240.53
2022-09-07T12:42:52.241Z,100232.81
2022-09-07T12:44:05.940Z,100245.19
2022-09-07T12:45:32.930Z,100243.06
2022-09-07T12:46:38.723Z,100235.91
2022-09-07T12:47:41.420Z,100231.42
2022-09-07T12:48:59.213Z,100233.48
2022-09-07T12:50:20.796Z,100239.99
2022-09-07T12:52:52.002Z,100231.84
2022-09-07T12:54:06.890Z,100223.73
2022-09-07T12:55:28.955Z,100237.11
2022-09-07T12:56:29.875Z,100241.77
2022-09-07T12:57:35.472Z,100233.91
2022-09-07T12:59:19.773Z,100245.22
2022-09-07T13:00:32.678Z,100243.75
2022-09-07T13:02:06.005Z,100237.25
2022-09-07T13:06:18.655Z,100233.34
2022-09-07T13:07:43.274Z,100237.91
2022-09-07T13:09:14.841Z,100234.55
2022-09-07T13:10:33.762Z,100227.67
2022-09-07T13:11:38.789Z,100240.75
2022-09-07T13:12:54.662Z,100223.93
2022-09-07T13:14:16.716Z,100229.04
2022-09-07T13:15:40.715Z,100221.33
2022-09-07T13:17:56.500Z,100211.94
2022-09-07T13:19:01.932Z,100218.16
2022-09-07T13:20:08.064Z,100215.91
2022-09-07T13:21:14.821Z,100218.56
2022-09-07T13:22:32.524Z,100219.58
2022-09-07T13:23:38.313Z,100220.05
2022-09-07T13:24:51.286Z,100211.92
2022-09-07T13:25:56.780Z,100209.56
2022-09-07T13:27:07.546Z,100202.83
2022-09-07T13:28:25.932Z,100201.91
2022-09-07T13:29:56.199Z,100216.16
2022-09-07T13:33:39.680Z,100206.45
2022-09-07T13:34:48.508Z,100210.59
2022-09-07T13:35:59.387Z,100204.52
2022-09-07T13:37:05.075Z,100206.58
2022-09-07T13:38:10.645Z,100206.31
2022-09-07T13:39:17.476Z,100201.83
2022-09-07T13:40:29.982Z,100197.70
2022-09-07T13:41:35.702Z,100192.51
2022-09-07T13:42:38.263Z,100199.30
2022-09-07T13:43:42.025Z,100207.24
2022-09-07T13:44:56.125Z,100212.33
2022-09-07T13:46:02.314Z,100198.25
2022-09-07T13:47:42.576Z,100202.38